Time;durP1;ratioP1;P1;durP2;ratioP2;P2;SDS_P1;SDS_P2;PMS_P1;PMS_P2;Temp;Humidity;BMP_temperature;BMP_pressure;BME280_temperature;BME280_humidity;BME280_pressure;Samples;Min_cycle;Max_cycle;Signal;HPM_P1;HPM_P2
2021/09/05 00:02:04;;;;;;;13.70;12.43;;;;;;;11.41;100.00;98243.72;5007671;28;20594;-71
2021/09/05 00:04:32;;;;;;;12.93;11.87;;;;;;;11.43;100.00;98237.28;5000479;28;20211;-70
2021/09/05 00:07:00;;;;;;;12.47;11.47;;;;;;;11.44;100.00;98230.97;5002586;28;20292;-71
2021/09/05 00:09:29;;;;;;;12.00;11.10;;;;;;;11.45;100.00;98237.09;5003226;28;20209;-70
2021/09/05 00:11:59;;;;;;;13.10;12.00;;;;;;;11.42;100.00;98234.78;5002102;28;20680;-70
2021/09/05 00:14:26;;;;;;;13.77;12.47;;;;;;;11.29;100.00;98235.25;5001530;28;20209;-70
2021/09/05 00:16:54;;;;;;;12.03;11.03;;;;;;;11.40;100.00;98229.66;5003426;28;20236;-70
2021/09/05 00:19:22;;;;;;;13.03;12.03;;;;;;;11.41;100.00;98233.13;4999817;28;20232;-69
2021/09/05 00:21:50;;;;;;;12.70;11.60;;;;;;;11.39;100.00;98232.44;5001581;28;20209;-70
2021/09/05 00:24:18;;;;;;;13.20;12.03;;;;;;;11.34;100.00;98224.16;5004106;28;20751;-70
2021/09/05 00:26:47;;;;;;;13.83;12.67;;;;;;;11.27;100.00;98223.97;5000849;28;20231;-70
2021/09/05 00:29:17;;;;;;;13.00;11.90;;;;;;;11.20;100.00;98228.28;5001428;28;20202;-70
2021/09/05 00:31:45;;;;;;;13.33;11.97;;;;;;;11.15;100.00;98223.44;5004937;28;20212;-69
2021/09/05 00:34:13;;;;;;;13.53;12.23;;;;;;;11.19;100.00;98226.63;5004887;28;20220;-71
2021/09/05 00:36:41;;;;;;;13.67;12.43;;;;;;;11.19;100.00;98227.47;5002830;28;20232;-71
2021/09/05 00:39:09;;;;;;;13.80;12.67;;;;;;;11.15;100.00;98229.59;5001320;28;20244;-71
2021/09/05 00:41:37;;;;;;;13.73;12.67;;;;;;;11.08;100.00;98227.75;5005327;28;20617;-71
2021/09/05 00:44:06;;;;;;;13.23;12.20;;;;;;;11.15;100.00;98226.09;4998615;28;20213;-70
2021/09/05 00:46:36;;;;;;;13.27;12.17;;;;;;;11.06;100.00;98222.59;5000768;28;20324;-71
2021/09/05 00:49:05;;;;;;;13.10;12.00;;;;;;;11.04;100.00;98227.25;5003487;28;20209;-71
2021/09/05 00:51:35;;;;;;;14.13;12.93;;;;;;;11.01;100.00;98227.56;5003249;28;20205;-71
2021/09/05 00:54:06;;;;;;;12.73;11.63;;;;;;;10.93;100.00;98235.47;5002844;28;20215;-71
2021/09/05 00:56:35;;;;;;;12.80;11.70;;;;;;;10.90;100.00;98234.00;4998241;28;20263;-70
2021/09/05 00:59:06;;;;;;;12.10;11.20;;;;;;;10.87;100.00;98234.31;5003360;28;20324;-71
2021/09/05 01:01:36;;;;;;;13.57;12.10;;;;;;;10.85;100.00;98241.59;5000865;28;20208;-71
2021/09/05 01:04:05;;;;;;;12.30;11.33;;;;;;;10.85;100.00;98237.09;5005136;28;20373;-70
2021/09/05 01:06:34;;;;;;;12.57;11.53;;;;;;;10.83;100.00;98246.22;5001943;28;20592;-70
2021/09/05 01:09:04;;;;;;;11.63;10.60;;;;;;;10.83;100.00;98244.41;5001081;28;20208;-70
2021/09/05 01:11:32;;;;;;;11.93;10.83;;;;;;;10.75;100.00;98243.53;4999286;28;20240;-71
2021/09/05 01:14:01;;;;;;;12.07;10.97;;;;;;;10.74;100.00;98244.50;5000234;28;20205;-71
2021/09/05 01:16:30;;;;;;;12.10;11.17;;;;;;;10.81;100.00;98248.22;5002773;28;20221;-70
2021/09/05 01:19:04;;;;;;;11.70;10.70;;;;;;;10.73;100.00;98246.34;5002758;28;20421;-70
2021/09/05 01:21:32;;;;;;;12.60;11.60;;;;;;;10.76;100.00;98245.19;5001995;28;21203;-70
2021/09/05 01:24:01;;;;;;;11.63;10.73;;;;;;;10.82;100.00;98244.56;5002823;28;20205;-71
2021/09/05 01:26:31;;;;;;;14.07;10.73;;;;;;;10.82;100.00;98248.03;5004514;28;20648;-70
2021/09/05 01:29:01;;;;;;;11.63;10.70;;;;;;;10.70;100.00;98250.13;5005131;28;20205;-71
2021/09/05 01:31:37;;;;;;;11.93;10.93;;;;;;;10.63;100.00;98249.09;5004149;28;20360;-70
2021/09/05 01:34:05;;;;;;;12.83;11.60;;;;;;;10.56;100.00;98251.56;5000393;28;20210;-70
2021/09/05 01:36:34;;;;;;;11.93;10.87;;;;;;;10.62;100.00;98252.75;5002354;28;20224;-71
2021/09/05 01:39:02;;;;;;;11.20;10.30;;;;;;;10.66;100.00;98251.44;5004462;28;20636;-71
2021/09/05 01:41:30;;;;;;;11.87;10.80;;;;;;;10.63;100.00;98254.41;5005416;28;20572;-70
2021/09/05 01:44:00;;;;;;;11.57;10.67;;;;;;;10.58;100.00;98259.34;5002344;28;20207;-71
2021/09/05 01:46:28;;;;;;;12.47;11.10;;;;;;;10.56;100.00;98262.16;5004516;28;20232;-69
2021/09/05 01:48:56;;;;;;;12.00;11.10;;;;;;;10.46;100.00;98265.94;4998585;28;20772;-71
2021/09/05 01:51:24;;;;;;;11.40;10.50;;;;;;;10.42;100.00;98268.88;5001577;28;20293;-70
2021/09/05 01:53:53;;;;;;;11.63;10.53;;;;;;;10.53;100.00;98269.59;5000250;28;20205;-70
2021/09/05 01:56:21;;;;;;;11.33;10.33;;;;;;;10.50;100.00;98267.25;4997622;28;20720;-71
2021/09/05 01:58:48;;;;;;;11.40;10.50;;;;;;;10.57;100.00;98265.66;5009931;28;20692;-70
2021/09/05 02:01:18;;;;;;;12.20;11.20;;;;;;;10.38;100.00;98271.97;5001718;28;20200;-70
2021/09/05 02:03:47;;;;;;;11.83;10.83;;;;;;;10.33;100.00;98280.38;5003211;28;20212;-70
2021/09/05 02:06:15;;;;;;;12.57;11.53;;;;;;;10.23;100.00;98271.69;4998289;28;20743;-70
2021/09/05 02:08:43;;;;;;;12.87;11.70;;;;;;;10.21;100.00;98277.13;5003680;28;20208;-71
2021/09/05 02:11:11;;;;;;;13.30;11.90;;;;;;;10.27;100.00;98275.69;4998524;28;20212;-71
2021/09/05 02:13:39;;;;;;;12.93;11.90;;;;;;;10.34;100.00;98268.78;4999517;28;20224;-70
2021/09/05 02:16:08;;;;;;;12.97;11.87;;;;;;;10.27;100.00;98265.94;5003557;28;20236;-71
2021/09/05 02:18:37;;;;;;;12.23;11.23;;;;;;;10.18;100.00;98264.19;4995510;28;20579;-70
2021/09/05 02:21:05;;;;;;;12.33;11.23;;;;;;;10.18;100.00;98266.03;5003708;28;20225;-70
2021/09/05 02:23:33;;;;;;;13.50;12.30;;;;;;;10.19;100.00;98270.34;5003705;28;20220;-70
2021/09/05 02:26:01;;;;;;;12.63;11.63;;;;;;;10.08;100.00;98269.63;4999384;28;20225;-71
2021/09/05 02:28:29;;;;;;;12.90;11.73;;;;;;;10.07;100.00;98270.59;5000858;28;20717;-70
2021/09/05 02:30:57;;;;;;;13.27;12.27;;;;;;;10.03;100.00;98266.56;5001533;28;20230;-71
2021/09/05 02:33:25;;;;;;;13.33;12.23;;;;;;;10.04;100.00;98273.56;5003832;28;20387;-71
2021/09/05 02:35:54;;;;;;;14.10;13.00;;;;;;;10.04;100.00;98273.56;4998224;28;20543;-71
2021/09/05 02:38:22;;;;;;;12.37;11.37;;;;;;;10.11;100.00;98274.59;5002509;28;20213;-69
2021/09/05 02:40:50;;;;;;;12.53;11.43;;;;;;;10.05;100.00;98269.94;5003097;28;20233;-70
2021/09/05 02:43:18;;;;;;;13.03;12.00;;;;;;;10.07;100.00;98262.66;5001754;28;20231;-70
2021/09/05 02:45:46;;;;;;;12.83;11.83;;;;;;;9.99;100.00;98275.81;5002201;28;20833;-71
2021/09/05 02:48:14;;;;;;;12.53;11.50;;;;;;;9.90;100.00;98280.22;5005661;28;20271;-70
2021/09/05 02:50:42;;;;;;;13.37;12.23;;;;;;;9.92;100.00;98280.06;5007453;28;20212;-71
2021/09/05 02:53:12;;;;;;;12.07;11.17;;;;;;;9.89;100.00;98281.22;5000986;28;20231;-71
2021/09/05 02:55:39;;;;;;;13.10;11.90;;;;;;;9.87;100.00;98279.69;4999843;28;20542;-70
2021/09/05 02:58:07;;;;;;;12.70;11.70;;;;;;;9.89;100.00;98288.31;5004336;28;20277;-71
2021/09/05 03:00:35;;;;;;;13.23;12.00;;;;;;;9.86;100.00;98284.16;5000307;28;20225;-70
2021/09/05 03:03:03;;;;;;;12.13;10.93;;;;;;;9.82;100.00;98283.63;4997073;28;20554;-70
2021/09/05 03:05:32;;;;;;;12.60;11.50;;;;;;;9.80;100.00;98275.00;5000575;28;20637;-71
2021/09/05 03:08:00;;;;;;;11.90;10.87;;;;;;;9.82;100.00;98275.69;5000152;28;20217;-70
2021/09/05 03:10:29;;;;;;;12.57;11.27;;;;;;;9.78;100.00;98271.69;5000981;28;20560;-70
2021/09/05 03:12:57;;;;;;;12.37;11.03;;;;;;;9.82;100.00;98277.50;4996042;28;20205;-70
2021/09/05 03:15:25;;;;;;;11.90;10.90;;;;;;;9.66;100.00;98270.22;5002299;28;20224;-70
2021/09/05 03:17:53;;;;;;;12.27;11.27;;;;;;;9.61;100.00;98277.78;4997455;28;20609;-71
2021/09/05 03:20:21;;;;;;;12.17;11.17;;;;;;;9.60;100.00;98278.78;4999932;28;20236;-71
2021/09/05 03:22:49;;;;;;;12.63;11.47;;;;;;;9.56;100.00;98286.19;4998377;28;20264;-70
2021/09/05 03:25:17;;;;;;;11.90;10.90;;;;;;;9.58;100.00;98283.38;5003907;28;20232;-70
2021/09/05 03:27:46;;;;;;;11.97;10.97;;;;;;;9.62;100.00;98280.31;4999910;28;20229;-70
2021/09/05 03:30:14;;;;;;;11.90;10.90;;;;;;;9.58;100.00;98294.81;5000343;28;20201;-70
2021/09/05 03:32:42;;;;;;;11.87;10.77;;;;;;;9.62;100.00;98285.59;5003181;28;20319;-71
2021/09/05 03:35:11;;;;;;;12.93;11.93;;;;;;;9.72;100.00;98290.81;4999642;28;20581;-71
2021/09/05 03:37:39;;;;;;;11.00;10.10;;;;;;;9.75;100.00;98292.31;5005231;28;20487;-70
2021/09/05 03:40:08;;;;;;;11.53;10.53;;;;;;;9.69;100.00;98294.59;5002443;28;20221;-70
2021/09/05 03:42:36;;;;;;;11.40;10.40;;;;;;;9.56;100.00;98292.31;5001421;28;20197;-70
2021/09/05 03:45:06;;;;;;;11.67;10.43;;;;;;;9.49;100.00;98301.00;5002194;28;20220;-70
2021/09/05 03:47:35;;;;;;;11.57;10.47;;;;;;;9.50;100.00;98294.75;4995981;28;20642;-70
2021/09/05 03:50:04;;;;;;;12.43;11.03;;;;;;;9.49;100.00;98303.66;5003332;28;20201;-70
2021/09/05 03:52:32;;;;;;;10.43;9.63;;;;;;;9.53;100.00;98308.47;4999876;28;20216;-70
2021/09/05 03:55:00;;;;;;;11.53;10.43;;;;;;;9.58;100.00;98304.56;4999043;28;20205;-71
2021/09/05 03:57:29;;;;;;;12.17;11.07;;;;;;;9.52;100.00;98306.81;4998962;28;20229;-69
2021/09/05 03:59:57;;;;;;;11.13;10.23;;;;;;;9.59;100.00;98315.00;4998117;28;20240;-70
2021/09/05 04:02:26;;;;;;;11.50;10.50;;;;;;;9.67;100.00;98314.25;5003997;28;20212;-70
2021/09/05 04:04:54;;;;;;;11.33;10.23;;;;;;;9.55;100.00;98305.69;5000595;28;20220;-70
2021/09/05 04:07:22;;;;;;;12.17;11.10;;;;;;;9.46;100.00;98307.44;5000482;28;20683;-71
2021/09/05 04:12:36;;;;;;;11.03;10.13;;;;;;;9.34;100.00;98313.91;4996954;28;20201;-70
2021/09/05 04:15:05;;;;;;;10.33;9.37;;;;;;;9.30;100.00;98312.56;4999851;28;20209;-70
2021/09/05 04:17:35;;;;;;;10.50;9.40;;;;;;;9.26;100.00;98319.94;5004088;28;20228;-71
2021/09/05 04:20:04;;;;;;;11.67;10.60;;;;;;;9.23;100.00;98321.03;5003478;28;20209;-70
2021/09/05 04:22:33;;;;;;;11.77;10.63;;;;;;;9.22;100.00;98322.03;5002163;28;20208;-70
2021/09/05 04:25:01;;;;;;;11.33;10.00;;;;;;;9.22;100.00;98315.94;5005653;28;20215;-71
2021/09/05 04:27:30;;;;;;;10.83;9.83;;;;;;;9.27;100.00;98306.53;5000617;28;20224;-70
2021/09/05 04:29:58;;;;;;;11.00;9.90;;;;;;;9.25;100.00;98316.44;5003718;28;20235;-70
2021/09/05 04:32:26;;;;;;;11.27;10.37;;;;;;;9.30;100.00;98307.25;5001696;28;20212;-70
2021/09/05 04:34:55;;;;;;;10.60;9.80;;;;;;;9.22;100.00;98316.75;4999121;28;20209;-69
2021/09/05 04:37:23;;;;;;;11.10;10.10;;;;;;;9.28;100.00;98317.97;5004832;28;20228;-71
2021/09/05 04:39:51;;;;;;;10.67;9.80;;;;;;;9.27;100.00;98325.06;5001524;28;20209;-70
2021/09/05 04:42:19;;;;;;;11.23;10.20;;;;;;;9.29;100.00;98317.00;5000054;28;20259;-70
2021/09/05 04:44:47;;;;;;;10.93;10.10;;;;;;;9.27;100.00;98322.41;4998971;28;20248;-68
2021/09/05 04:47:16;;;;;;;10.13;9.33;;;;;;;9.22;100.00;98324.66;4996940;28;20308;-70
2021/09/05 04:49:44;;;;;;;10.87;9.87;;;;;;;9.29;100.00;98324.94;4999780;28;20442;-70
2021/09/05 04:52:13;;;;;;;10.37;9.53;;;;;;;9.31;100.00;98324.78;5004790;28;20205;-71
2021/09/05 04:54:41;;;;;;;11.73;10.63;;;;;;;9.30;100.00;98325.78;5001603;28;20459;-72
2021/09/05 04:57:09;;;;;;;10.70;9.87;;;;;;;9.31;100.00;98330.09;5000318;28;20225;-71
2021/09/05 04:59:37;;;;;;;10.77;9.90;;;;;;;9.38;100.00;98324.03;5007729;28;20688;-70
2021/09/05 05:02:05;;;;;;;10.80;9.90;;;;;;;9.31;100.00;98327.44;5007160;28;20232;-72
2021/09/05 05:04:33;;;;;;;9.90;8.90;;;;;;;9.34;100.00;98329.78;5005434;28;20263;-72
2021/09/05 05:07:01;;;;;;;10.87;9.87;;;;;;;9.43;100.00;98339.47;5006051;28;20233;-68
2021/09/05 05:09:31;;;;;;;10.60;9.70;;;;;;;9.52;100.00;98349.16;5006220;28;20208;-68
2021/09/05 05:11:59;;;;;;;10.47;9.47;;;;;;;9.56;100.00;98349.69;5002300;28;20197;-67
2021/09/05 05:14:26;;;;;;;10.27;9.53;;;;;;;9.49;100.00;98352.09;4998790;28;20218;-68
2021/09/05 05:16:54;;;;;;;10.40;9.60;;;;;;;9.52;100.00;98351.81;5004099;28;20736;-67
2021/09/05 05:19:22;;;;;;;10.50;9.53;;;;;;;9.62;100.00;98353.53;4999508;28;20547;-67
2021/09/05 05:21:50;;;;;;;10.23;9.43;;;;;;;9.63;100.00;98358.69;5004884;28;20229;-67
2021/09/05 05:24:18;;;;;;;11.13;10.13;;;;;;;9.68;100.00;98363.56;5002246;28;20210;-67
2021/09/05 05:26:47;;;;;;;11.47;10.30;;;;;;;9.75;100.00;98366.41;5004241;28;20228;-67
2021/09/05 05:29:15;;;;;;;10.67;9.87;;;;;;;9.85;100.00;98368.03;5002371;28;20213;-67
2021/09/05 05:31:43;;;;;;;10.63;9.67;;;;;;;9.89;100.00;98365.06;5001837;28;20217;-67
2021/09/05 05:34:11;;;;;;;11.03;10.10;;;;;;;9.83;100.00;98371.78;5000332;28;20240;-69
2021/09/05 05:36:39;;;;;;;11.80;10.80;;;;;;;9.89;100.00;98370.38;5002739;28;20257;-67
2021/09/05 05:39:08;;;;;;;9.93;8.93;;;;;;;9.99;100.00;98376.41;5003446;28;20213;-66
2021/09/05 05:41:35;;;;;;;10.60;9.70;;;;;;;9.98;100.00;98378.25;5006635;28;20232;-67
2021/09/05 05:44:05;;;;;;;10.80;9.90;;;;;;;10.03;100.00;98382.25;5003231;28;20209;-67
2021/09/05 05:46:37;;;;;;;11.37;9.30;;;;;;;10.14;100.00;98376.72;5001069;28;20480;-67
2021/09/05 05:49:05;;;;;;;10.40;9.60;;;;;;;10.14;100.00;98380.22;5003742;28;20220;-67
2021/09/05 05:51:33;;;;;;;10.97;10.00;;;;;;;10.11;100.00;98383.19;5002359;28;20760;-67
2021/09/05 05:54:01;;;;;;;10.50;9.67;;;;;;;10.13;100.00;98383.84;5002743;28;20225;-66
2021/09/05 05:56:29;;;;;;;10.93;9.93;;;;;;;10.16;100.00;98390.66;5006627;28;20279;-67
2021/09/05 05:58:57;;;;;;;10.07;9.27;;;;;;;10.21;100.00;98390.19;4999997;28;20213;-66
2021/09/05 06:01:26;;;;;;;9.53;8.73;;;;;;;10.26;100.00;98391.41;5001094;28;20241;-67
2021/09/05 06:03:54;;;;;;;10.90;10.10;;;;;;;10.32;100.00;98383.84;5001408;28;20510;-65
2021/09/05 06:06:23;;;;;;;10.67;9.77;;;;;;;10.41;100.00;98386.41;5010482;28;20229;-66
2021/09/05 06:08:51;;;;;;;10.70;9.80;;;;;;;10.47;100.00;98384.97;5007966;28;20217;-66
2021/09/05 06:11:18;;;;;;;10.47;9.67;;;;;;;10.55;100.00;98378.91;5003693;28;20200;-67
2021/09/05 06:13:46;;;;;;;10.53;9.50;;;;;;;10.69;100.00;98388.13;5008201;28;20465;-67
2021/09/05 06:16:14;;;;;;;9.40;8.70;;;;;;;10.82;100.00;98393.03;5006370;28;20696;-66
2021/09/05 06:18:44;;;;;;;9.23;8.43;;;;;;;10.92;100.00;98398.22;5005335;28;21018;-66
2021/09/05 06:21:11;;;;;;;9.50;8.80;;;;;;;11.02;100.00;98393.66;5004635;28;20217;-65
2021/09/05 06:23:39;;;;;;;10.63;9.77;;;;;;;11.15;100.00;98394.03;5003834;28;20259;-67
2021/09/05 06:26:07;;;;;;;10.90;9.90;;;;;;;11.28;100.00;98398.06;5003916;28;20225;-66
2021/09/05 06:28:35;;;;;;;9.50;8.70;;;;;;;11.38;100.00;98403.28;5006020;28;20357;-66
2021/09/05 06:31:04;;;;;;;10.60;9.70;;;;;;;11.48;100.00;98393.34;5001312;28;20612;-67
2021/09/05 06:33:32;;;;;;;10.77;9.87;;;;;;;11.65;100.00;98404.03;4999307;28;20212;-66
2021/09/05 06:36:01;;;;;;;11.37;10.33;;;;;;;11.76;100.00;98398.44;5010101;28;20657;-66
2021/09/05 06:38:29;;;;;;;11.13;10.20;;;;;;;11.95;100.00;98402.63;5013848;28;20204;-65
2021/09/05 06:40:57;;;;;;;10.53;9.73;;;;;;;12.10;100.00;98405.50;5006069;28;20209;-70
2021/09/05 06:43:24;;;;;;;12.13;11.00;;;;;;;12.29;100.00;98411.50;5010987;28;20835;-69
2021/09/05 06:45:52;;;;;;;10.87;9.90;;;;;;;12.39;100.00;98411.34;5005772;28;20338;-68
2021/09/05 06:48:40;;;;;;;11.30;10.30;;;;;;;12.45;100.00;98411.53;5009196;28;20198;-68
2021/09/05 06:51:10;;;;;;;11.30;10.30;;;;;;;12.65;100.00;98405.84;5003762;28;20208;-69
2021/09/05 06:53:38;;;;;;;12.00;11.00;;;;;;;12.80;100.00;98402.53;5004485;28;20228;-68
2021/09/05 06:56:06;;;;;;;12.23;11.03;;;;;;;12.97;100.00;98403.34;5005871;28;20239;-67
2021/09/05 06:58:34;;;;;;;12.73;11.53;;;;;;;13.06;100.00;98412.97;5005445;28;20643;-68
2021/09/05 07:01:02;;;;;;;12.63;11.10;;;;;;;13.30;100.00;98413.91;5007532;28;20235;-69
2021/09/05 07:03:31;;;;;;;10.90;10.00;;;;;;;13.48;100.00;98412.88;5005842;28;20212;-68
2021/09/05 07:05:59;;;;;;;11.97;10.87;;;;;;;13.70;100.00;98408.59;5001256;28;20233;-68
2021/09/05 07:08:28;;;;;;;10.83;10.03;;;;;;;13.83;100.00;98410.72;5003263;28;20579;-69
2021/09/05 07:10:56;;;;;;;12.40;11.27;;;;;;;13.94;100.00;98404.97;5001726;28;20286;-68
2021/09/05 07:13:24;;;;;;;12.10;11.20;;;;;;;14.05;100.00;98411.75;5000766;28;20621;-69
2021/09/05 07:15:52;;;;;;;11.33;10.33;;;;;;;14.27;100.00;98398.63;5005143;28;20224;-69
2021/09/05 07:18:23;;;;;;;14.13;10.93;;;;;;;14.35;100.00;98400.38;4999327;28;20673;-70
2021/09/05 07:20:51;;;;;;;12.10;10.97;;;;;;;14.38;100.00;98408.00;5008175;28;20205;-70
2021/09/05 07:23:19;;;;;;;10.30;9.50;;;;;;;14.55;100.00;98414.06;5003694;28;20304;-70
2021/09/05 07:25:49;;;;;;;11.43;10.53;;;;;;;14.64;100.00;98414.81;5010753;28;20323;-71
2021/09/05 07:28:17;;;;;;;11.67;10.57;;;;;;;14.88;100.00;98416.47;5005291;28;20217;-71
2021/09/05 07:30:45;;;;;;;10.63;9.83;;;;;;;14.98;100.00;98406.38;5003312;28;21014;-70
2021/09/05 07:33:13;;;;;;;11.20;10.30;;;;;;;15.14;100.00;98407.22;5003635;28;20228;-70
2021/09/05 07:35:41;;;;;;;10.57;9.77;;;;;;;15.20;100.00;98411.81;5002354;28;20223;-70
2021/09/05 07:38:09;;;;;;;12.33;11.23;;;;;;;15.30;100.00;98423.03;5003400;28;20687;-70
2021/09/05 07:40:37;;;;;;;11.03;10.03;;;;;;;15.44;100.00;98421.38;4999343;28;20217;-72
2021/09/05 07:43:06;;;;;;;11.47;10.57;;;;;;;15.68;100.00;98426.59;5012180;28;20231;-70
2021/09/05 07:45:35;;;;;;;10.33;9.33;;;;;;;15.92;100.00;98417.50;5004458;28;20292;-70
2021/09/05 07:48:03;;;;;;;11.10;10.20;;;;;;;15.98;100.00;98422.09;5012302;28;20361;-70
2021/09/05 07:50:31;;;;;;;10.70;9.70;;;;;;;16.05;100.00;98416.78;5006215;28;20231;-71
2021/09/05 07:52:59;;;;;;;12.00;10.77;;;;;;;16.19;100.00;98421.28;5010864;28;20227;-70
2021/09/05 07:55:27;;;;;;;10.53;9.70;;;;;;;16.35;100.00;98416.69;5005205;28;20334;-70
2021/09/05 07:57:55;;;;;;;9.77;8.93;;;;;;;16.38;100.00;98421.66;5002992;28;20697;-70
2021/09/05 08:00:25;;;;;;;10.30;9.40;;;;;;;16.61;100.00;98420.63;5007184;28;20204;-71
2021/09/05 08:02:53;;;;;;;10.53;9.47;;;;;;;16.60;100.00;98424.34;5003668;28;20201;-68
2021/09/05 08:05:21;;;;;;;10.77;9.87;;;;;;;16.69;100.00;98430.38;5007587;28;20649;-70
2021/09/05 08:07:50;;;;;;;10.00;9.20;;;;;;;16.88;100.00;98429.69;4947768;28;20603;-71
2021/09/05 08:10:18;;;;;;;10.80;9.93;;;;;;;16.99;100.00;98422.19;4982455;28;20279;-71
2021/09/05 08:12:46;;;;;;;11.20;10.20;;;;;;;17.17;100.00;98424.38;5007440;28;20236;-70
2021/09/05 08:15:14;;;;;;;9.77;9.07;;;;;;;17.33;100.00;98426.75;5004360;28;20209;-71
2021/09/05 08:17:43;;;;;;;10.90;9.80;;;;;;;17.31;100.00;98431.47;5000604;28;20255;-70
2021/09/05 08:20:12;;;;;;;10.77;9.87;;;;;;;17.45;100.00;98428.88;4918605;28;20712;-71
2021/09/05 08:22:40;;;;;;;10.20;9.40;;;;;;;17.54;100.00;98438.38;4978597;28;20465;-71
2021/09/05 08:25:09;;;;;;;10.23;9.40;;;;;;;17.69;100.00;98432.09;4993617;28;20209;-71
2021/09/05 08:27:37;;;;;;;13.13;12.17;;;;;;;17.70;100.00;98439.91;4972404;28;20338;-69
2021/09/05 08:30:06;;;;;;;12.47;11.30;;;;;;;18.00;100.00;98428.09;4998353;28;20212;-71
2021/09/05 08:32:35;;;;;;;12.10;11.20;;;;;;;18.04;100.00;98427.50;5002400;28;20541;-69
2021/09/05 08:35:05;;;;;;;11.53;10.57;;;;;;;18.14;100.00;98432.47;4983978;28;20533;-71
2021/09/05 08:37:33;;;;;;;11.33;10.33;;;;;;;18.37;100.00;98432.09;4974914;28;20616;-71
2021/09/05 08:40:01;;;;;;;10.23;9.43;;;;;;;18.33;100.00;98435.38;4984388;28;20232;-70
2021/09/05 08:42:32;;;;;;;10.77;9.87;;;;;;;18.48;100.00;98438.75;4986087;28;20402;-72
2021/09/05 08:45:01;;;;;;;10.27;9.17;;;;;;;18.59;100.00;98444.53;4998040;28;20240;-71
2021/09/05 08:47:33;;;;;;;16.70;9.77;;;;;;;18.88;100.00;98439.78;4983494;28;20228;-70
2021/09/05 08:50:02;;;;;;;10.90;9.93;;;;;;;18.97;100.00;98440.41;4998449;28;20205;-70
2021/09/05 08:52:32;;;;;;;10.50;9.53;;;;;;;19.15;100.00;98437.13;4955907;28;20209;-70
2021/09/05 08:55:00;;;;;;;10.03;9.33;;;;;;;19.01;100.00;98441.69;5002533;28;20381;-70
2021/09/05 08:57:28;;;;;;;10.53;9.53;;;;;;;19.11;100.00;98444.75;4986074;28;20240;-69
2021/09/05 08:59:56;;;;;;;9.67;8.87;;;;;;;19.12;100.00;98435.66;5006254;28;20714;-70
2021/09/05 09:02:24;;;;;;;9.77;8.83;;;;;;;19.32;100.00;98446.38;4996351;28;20204;-71
2021/09/05 09:04:54;;;;;;;9.83;8.93;;;;;;;19.57;100.00;98444.88;4986790;28;20263;-70
2021/09/05 09:07:22;;;;;;;9.87;8.97;;;;;;;19.73;100.00;98436.34;4967537;28;20259;-70
2021/09/05 09:09:58;;;;;;;9.30;8.50;;;;;;;19.76;100.00;98444.00;4986189;28;20228;-71
2021/09/05 09:12:39;;;;;;;8.70;7.90;;;;;;;19.90;100.00;98436.72;4994055;28;20200;-71
2021/09/05 09:15:26;;;;;;;8.47;7.87;;;;;;;19.99;100.00;98433.78;4990710;28;20639;-71
2021/09/05 09:17:56;;;;;;;8.03;7.33;;;;;;;20.15;100.00;98435.16;4999150;28;20220;-71
2021/09/05 09:20:35;;;;;;;8.57;7.87;;;;;;;20.06;100.00;98437.25;4999587;28;20419;-71
2021/09/05 09:23:21;;;;;;;8.40;7.70;;;;;;;20.29;100.00;98428.66;4970976;28;20208;-71
2021/09/05 09:25:58;;;;;;;8.30;7.53;;;;;;;20.45;100.00;98435.38;5004450;28;20236;-71
2021/09/05 09:28:28;;;;;;;8.30;7.70;;;;;;;20.67;100.00;98435.03;4984271;28;20238;-71
2021/09/05 09:30:58;;;;;;;7.83;7.30;;;;;;;20.69;100.00;98438.31;4999757;28;20224;-71
2021/09/05 09:33:28;;;;;;;7.50;6.87;;;;;;;20.73;100.00;98434.16;4979565;28;20750;-71
2021/09/05 09:35:57;;;;;;;8.20;7.50;;;;;;;;;;5001119;28;20231;-70
2021/09/05 09:38:25;;;;;;;8.17;7.47;;;;;;;20.90;100.00;98436.31;4960096;28;20209;-71
2021/09/05 09:41:07;;;;;;;8.37;7.67;;;;;;;21.09;100.00;98447.94;4982876;28;20212;-70
2021/09/05 09:43:48;;;;;;;7.43;6.73;;;;;;;21.23;100.00;98437.88;5003926;28;20450;-71
2021/09/05 09:46:17;;;;;;;8.57;7.87;;;;;;;21.07;100.00;98428.50;4983231;28;20846;-71
2021/09/05 09:48:47;;;;;;;7.87;7.27;;;;;;;21.04;100.00;98429.78;4997345;28;20677;-70
2021/09/05 09:51:15;;;;;;;7.13;6.70;;;;;;;21.27;100.00;98439.06;4975321;28;20641;-71
2021/09/05 09:53:44;;;;;;;7.27;6.77;;;;;;;21.37;100.00;98439.38;4996305;28;20235;-70
2021/09/05 09:56:16;;;;;;;7.60;6.93;;;;;;;21.39;100.00;98437.28;5000948;28;20254;-71
2021/09/05 09:58:45;;;;;;;7.00;6.50;;;;;;;21.60;100.00;98437.91;4985884;28;20599;-71
2021/09/05 10:01:15;;;;;;;7.47;6.97;;;;;;;21.86;100.00;98441.38;4995333;28;20213;-71
2021/09/05 10:03:44;;;;;;;7.30;6.67;;;;;;;21.64;100.00;98433.72;4980594;28;20228;-71
2021/09/05 10:06:13;;;;;;;7.57;6.97;;;;;;;21.83;100.00;98436.44;5000986;28;20321;-71
2021/09/05 10:08:41;;;;;;;8.00;7.30;;;;;;;21.76;100.00;98439.19;4964304;28;20253;-71
2021/09/05 10:11:11;;;;;;;7.70;7.00;;;;;;;21.86;100.00;98435.97;4981877;28;20407;-72
2021/09/05 10:13:41;;;;;;;7.73;6.90;;;;;;;22.08;100.00;98438.16;5003909;28;20326;-70
2021/09/05 10:16:11;;;;;;;8.43;7.63;;;;;;;22.14;100.00;98431.03;4982646;28;20498;-71
2021/09/05 10:18:42;;;;;;;7.10;6.60;;;;;;;22.12;100.00;98428.56;4996592;28;20232;-70
2021/09/05 10:21:11;;;;;;;8.03;7.43;;;;;;;22.25;100.00;98433.78;4992490;28;20209;-71
2021/09/05 10:23:39;;;;;;;6.83;6.33;;;;;;;22.36;100.00;98424.09;4957949;28;20318;-70
2021/09/05 10:26:08;;;;;;;6.07;5.67;;;;;;;22.30;99.58;98437.66;5000252;28;20628;-73
2021/09/05 10:28:38;;;;;;;6.50;6.07;;;;;;;22.80;86.77;98426.53;5017289;28;20300;-70
2021/09/05 10:31:08;;;;;;;6.13;5.67;;;;;;;22.77;88.00;98426.19;4947518;28;20361;-70
2021/09/05 10:33:38;;;;;;;6.10;5.60;;;;;;;23.05;87.85;98424.66;4993453;28;20214;-71
2021/09/05 10:36:10;;;;;;;6.13;5.40;;;;;;;23.11;79.41;98432.66;4987217;28;20267;-70
2021/09/05 10:38:40;;;;;;;5.50;5.13;;;;;;;23.20;74.97;98425.03;4986668;28;20245;-71
2021/09/05 10:41:10;;;;;;;5.27;4.90;;;;;;;23.77;72.11;98428.13;4976236;28;20226;-71
2021/09/05 10:44:05;;;;;;;5.53;4.87;;;;;;;23.89;63.95;98417.28;4991005;28;20270;-71
2021/09/05 10:46:39;;;;;;;6.17;5.67;;;;;;;24.05;65.02;98424.66;4974601;28;20227;-72
2021/09/05 10:49:07;;;;;;;5.90;5.50;;;;;;;24.65;62.91;98419.75;4980329;28;20212;-71
2021/09/05 10:51:39;;;;;;;5.37;4.97;;;;;;;24.70;60.76;98422.53;5003872;28;20266;-71
2021/09/05 10:54:09;;;;;;;4.60;4.30;;;;;;;25.07;58.50;98410.38;4966929;28;20787;-71
2021/09/05 10:56:38;;;;;;;5.50;5.17;;;;;;;25.30;57.35;98422.09;5001458;28;20223;-72
2021/09/05 10:59:06;;;;;;;4.93;4.53;;;;;;;25.92;53.42;98417.44;4979340;28;20440;-70
2021/09/05 11:01:37;;;;;;;5.77;4.70;;;;;;;25.35;53.42;98418.63;4974170;28;20208;-71
2021/09/05 11:04:24;;;;;;;4.93;4.63;;;;;;;25.60;52.70;98415.47;4989248;28;20471;-71
2021/09/05 11:06:53;;;;;;;5.63;5.13;;;;;;;24.99;56.79;98408.91;4986930;28;20236;-71
2021/09/05 11:09:40;;;;;;;5.30;4.73;;;;;;;25.13;55.93;98414.00;5001128;28;20911;-71
2021/09/05 11:12:10;;;;;;;5.97;5.47;;;;;;;24.95;57.40;98417.78;4965136;28;20490;-71
2021/09/05 11:14:58;;;;;;;5.43;5.03;;;;;;;25.21;58.86;98418.19;5003061;28;20476;-71
2021/09/05 11:17:29;;;;;;;4.67;4.40;;;;;;;25.54;59.34;98414.59;4949812;28;20247;-72
2021/09/05 11:19:59;;;;;;;5.03;4.73;;;;;;;25.41;55.58;98417.63;4997074;28;20205;-71
2021/09/05 11:22:31;;;;;;;5.93;5.40;;;;;;;25.57;56.05;98418.66;5003303;28;20208;-70
2021/09/05 11:25:24;;;;;;;6.07;5.57;;;;;;;25.61;55.29;98419.81;4975387;28;20580;-71
2021/09/05 11:28:01;;;;;;;6.33;5.80;;;;;;;25.36;54.09;98426.53;5000791;28;20580;-71
2021/09/05 11:30:34;;;;;;;6.17;5.07;;;;;;;25.80;54.46;98416.78;4981324;28;20587;-71
2021/09/05 11:33:08;;;;;;;5.23;4.87;;;;;;;25.78;54.50;98421.63;4967801;28;20212;-71